This is the latest recevied weather packets stored in our database for station/object PI8ANH-13. If no packets are shown the sender has not sent any weather packets the latest 10 day(s).
| Time | Temp. | Humidity | Pressure | Rain* | Wind** | Luminosity | Snow |
|---|---|---|---|---|---|---|---|
| 1777727698 | 22.78° C | 47% | 1017 hPa | - | - | - | - |
| 1777726798 | 22.78° C | 47% | 1017 hPa | - | - | - | - |
| 1777725898 | 22.78° C | 47% | 1017 hPa | - | - | - | - |
| 1777724998 | 22.78° C | 50% | 1017 hPa | - | - | - | - |
| 1777724098 | 22.78° C | 50% | 1017 hPa | - | - | - | - |
| 1777723198 | 22.78° C | 50% | 1017 hPa | - | - | - | - |
| 1777722298 | 22.78° C | 50% | 1017 hPa | - | - | - | - |
| 1777721398 | 22.22° C | 46% | 1017 hPa | - | - | - | - |
| 1777720498 | 22.22° C | 46% | 1017 hPa | - | - | - | - |
| 1777719598 | 21.11° C | 49% | 1018 hPa | - | - | - | - |
| 1777718698 | 21.11° C | 49% | 1018 hPa | - | - | - | - |
| 1777717798 | 21.11° C | 43% | 1018 hPa | - | - | - | - |
| 1777716898 | 21.11° C | 43% | 1018 hPa | - | - | - | - |
| 1777715998 | 20° C | 43% | 1018 hPa | - | - | - | - |
| 1777715098 | 20° C | 43% | 1018 hPa | - | - | - | - |
| 1777714198 | 17.78° C | 52% | 1018 hPa | - | - | - | - |
| 1777713298 | 17.78° C | 52% | 1018 hPa | - | - | - | - |
| 1777712398 | 16.11° C | 51% | 1018 hPa | - | - | - | - |
| 1777711498 | 16.11° C | 51% | 1018 hPa | - | - | - | - |
| 1777710598 | 15° C | 55% | 1018 hPa | - | - | - | - |
| 1777709698 | 15° C | 55% | 1018 hPa | - | - | - | - |
| 1777708798 | 16.11° C | 45% | 1018 hPa | - | - | - | - |
| 1777707898 | 16.11° C | 45% | 1018 hPa | - | - | - | - |
| 1777706998 | 17.22° C | 42% | 1018 hPa | - | - | - | - |
| 1777706098 | 17.22° C | 42% | 1018 hPa | - | - | - | - |
* Rain since midnight (hover to see other rain measurements)
** Current wind speed in m/s (hover to see current wind gust speed)